Time;durP1;ratioP1;P1;durP2;ratioP2;P2;SDS_P1;SDS_P2;PMS_P1;PMS_P2;Temp;Humidity;BMP_temperature;BMP_pressure;BME280_temperature;BME280_humidity;BME280_pressure;Samples;Min_cycle;Max_cycle;Signal;HPM_P1;HPM_P2
2021/12/12 00:00:48;;;;;;;21.37;6.73;;;;;;;15.27;48.01;101978.72;5051586;28;20032;-70
2021/12/12 00:03:32;;;;;;;18.70;6.00;;;;;;;14.95;48.06;101985.22;5048266;28;20487;-70
2021/12/12 00:05:57;;;;;;;19.40;6.90;;;;;;;14.86;48.46;101980.03;5049883;28;20465;-70
2021/12/12 00:08:23;;;;;;;21.43;5.90;;;;;;;15.18;48.05;101976.19;5035954;28;20039;-70
2021/12/12 00:11:00;;;;;;;18.93;6.07;;;;;;;14.58;49.52;101975.00;5045813;28;20037;-70
2021/12/12 00:13:32;;;;;;;24.57;6.90;;;;;;;14.20;49.48;101971.78;5032082;28;20485;-70
2021/12/12 00:15:58;;;;;;;;;;;;;;;15.30;47.74;101970.78;5030006;28;20040;-70
2021/12/12 00:18:23;;;;;;;25.37;5.77;;;;;;;14.46;49.09;101964.59;5041291;28;19999;-70
2021/12/12 00:20:50;;;;;;;15.37;5.77;;;;;;;15.05;48.08;101960.53;5055651;28;20059;-70
2021/12/12 00:23:16;;;;;;;20.27;7.40;;;;;;;14.99;48.59;101957.09;5035271;28;20029;-70
2021/12/12 00:25:45;;;;;;;20.70;7.50;;;;;;;14.65;48.64;101947.78;5051596;28;20103;-71
2021/12/12 00:28:11;;;;;;;19.27;7.23;;;;;;;14.87;49.03;101950.22;5056162;28;20477;-70
2021/12/12 00:30:38;;;;;;;18.53;6.90;;;;;;;15.21;47.01;101940.16;5048390;28;20032;-71
2021/12/12 00:33:04;;;;;;;19.87;6.73;;;;;;;14.48;48.39;101947.91;5052750;28;20473;-70
2021/12/12 00:35:30;;;;;;;20.53;6.33;;;;;;;14.04;50.25;101931.59;5039527;28;20060;-70
2021/12/12 00:38:03;;;;;;;19.80;6.70;;;;;;;14.65;50.11;101937.25;5034397;28;20107;-70
2021/12/12 00:40:32;;;;;;;24.13;7.72;;;;;;;14.46;50.04;101933.88;5064276;28;20036;-70
2021/12/12 00:43:07;;;;;;;19.13;7.43;;;;;;;14.97;48.08;101930.78;5070735;28;20063;-70
2021/12/12 00:45:33;;;;;;;15.13;6.23;;;;;;;14.19;50.60;101929.72;5061568;28;20031;-70
2021/12/12 00:47:59;;;;;;;17.77;7.00;;;;;;;14.46;50.07;101927.75;5043217;28;20055;-70
2021/12/12 00:50:30;;;;;;;18.40;7.27;;;;;;;14.51;49.19;101920.72;5044229;28;20024;-70
2021/12/12 00:52:57;;;;;;;20.13;7.43;;;;;;;13.83;50.38;101929.09;5051553;28;20190;-70
2021/12/12 00:55:23;;;;;;;20.80;6.60;;;;;;;14.62;50.79;101916.22;5048229;28;20025;-70
2021/12/12 00:57:52;;;;;;;22.73;7.37;;;;;;;15.00;48.49;101925.50;5044585;28;20021;-71
2021/12/12 01:00:22;;;;;;;15.17;7.17;;;;;;;15.09;48.49;101924.50;5045243;28;20049;-70
2021/12/12 01:02:48;;;;;;;17.27;6.73;;;;;;;14.40;49.34;101924.28;5032232;28;20508;-70
2021/12/12 01:05:14;;;;;;;16.93;6.77;;;;;;;13.69;53.18;101934.44;5052525;28;20060;-71
2021/12/12 01:07:43;;;;;;;21.07;6.43;;;;;;;14.04;51.78;101928.97;5064806;28;20048;-71
2021/12/12 01:10:29;;;;;;;16.13;6.50;;;;;;;14.98;49.53;101932.53;5033543;28;20028;-71
2021/12/12 01:12:56;;;;;;;16.67;7.03;;;;;;;15.14;49.53;101932.34;5031398;28;20033;-71
2021/12/12 01:15:36;;;;;;;16.60;6.53;;;;;;;14.69;50.50;101919.69;5032542;28;20261;-71
2021/12/12 01:18:17;;;;;;;17.27;6.53;;;;;;;14.55;51.83;101918.03;5039613;28;20081;-71
2021/12/12 01:20:51;;;;;;;13.87;5.97;;;;;;;14.35;51.53;101917.31;5035923;28;20067;-71
2021/12/12 01:23:55;;;;;;;22.87;6.90;;;;;;;15.69;48.46;101910.56;5050048;28;20176;-71
2021/12/12 01:26:22;;;;;;;18.60;5.70;;;;;;;14.75;50.65;101924.88;5047181;28;20040;-71
2021/12/12 01:28:54;;;;;;;17.17;5.90;;;;;;;14.69;50.17;101925.81;5045371;28;20028;-70
2021/12/12 01:31:24;;;;;;;17.05;5.18;;;;;;;14.13;52.09;101919.25;5050519;28;20029;-71
2021/12/12 01:33:59;;;;;;;16.77;5.00;;;;;;;14.02;51.83;101911.44;5031198;28;20091;-70
2021/12/12 01:36:42;;;;;;;20.20;5.60;;;;;;;14.28;51.30;101921.75;5033029;28;20052;-70
2021/12/12 01:39:09;;;;;;;19.17;5.97;;;;;;;13.70;53.36;101929.16;5065374;28;20032;-71
2021/12/12 01:41:40;;;;;;;21.37;5.80;;;;;;;15.07;49.45;101927.16;5031666;28;20440;-71
2021/12/12 01:44:10;;;;;;;15.30;5.87;;;;;;;14.70;50.57;101916.13;5049515;28;20033;-71
2021/12/12 01:46:42;;;;;;;19.83;5.97;;;;;;;13.88;53.75;101914.19;5036655;28;20037;-71
2021/12/12 01:49:15;;;;;;;25.60;6.78;;;;;;;14.49;52.80;101919.84;5046342;28;20450;-70
2021/12/12 01:51:43;;;;;;;20.43;7.03;;;;;;;14.10;53.65;101919.28;5050330;28;20106;-70
2021/12/12 01:54:13;;;;;;;18.40;5.87;;;;;;;13.52;56.99;101921.41;5069370;28;20074;-70
2021/12/12 01:56:49;;;;;;;11.17;5.90;;;;;;;13.51;56.61;101912.63;5068680;28;20033;-70
2021/12/12 01:59:16;;;;;;;16.93;7.20;;;;;;;13.85;53.67;101911.56;5038446;28;20025;-70
2021/12/12 02:01:53;;;;;;;22.07;7.63;;;;;;;13.70;55.85;101908.16;5049972;28;20017;-69
2021/12/12 02:04:35;;;;;;;16.60;7.13;;;;;;;14.33;55.30;101898.94;5033732;28;20032;-70
2021/12/12 02:07:05;;;;;;;18.83;7.18;;;;;;;13.71;56.30;101894.13;5034984;28;20069;-70
2021/12/12 02:09:31;;;;;;;13.33;6.03;;;;;;;14.03;53.96;101898.28;5049594;28;20154;-70
2021/12/12 02:11:58;;;;;;;16.37;6.70;;;;;;;14.12;55.33;101891.22;5047858;28;20033;-71
2021/12/12 02:14:27;;;;;;;16.10;7.30;;;;;;;13.66;57.53;101895.91;5031892;28;20115;-70
2021/12/12 02:17:19;;;;;;;15.27;6.67;;;;;;;13.78;56.63;101892.34;5032346;28;20503;-70
2021/12/12 02:20:10;;;;;;;22.90;7.25;;;;;;;13.95;56.01;101884.31;5052330;28;20396;-70
2021/12/12 02:23:29;;;;;;;18.13;7.80;;;;;;;13.71;56.85;101891.50;5052777;28;20049;-70
2021/12/12 02:36:31;;;;;;;15.30;7.47;;;;;;;14.80;53.20;101896.75;5054792;28;20091;-71
2021/12/12 02:38:58;;;;;;;16.30;7.37;;;;;;;14.54;54.79;101904.88;5039057;28;20053;-71
2021/12/12 02:41:25;;;;;;;19.33;8.10;;;;;;;15.01;51.38;101895.63;5045616;28;20024;-70
2021/12/12 02:43:54;;;;;;;17.53;8.00;;;;;;;14.92;52.48;101885.22;5041032;28;20503;-70
2021/12/12 02:46:27;;;;;;;15.90;7.50;;;;;;;14.74;52.30;101887.16;5043784;28;20041;-71
2021/12/12 02:48:58;;;;;;;16.00;8.30;;;;;;;14.48;55.32;101889.13;5040940;28;20029;-71
2021/12/12 02:51:24;;;;;;;13.53;8.33;;;;;;;15.06;52.98;101888.56;5034598;28;20502;-70
2021/12/12 02:53:55;;;;;;;13.83;7.57;;;;;;;14.86;53.49;101888.78;5068282;28;20025;-70
2021/12/12 02:56:43;;;;;;;20.60;7.93;;;;;;;14.51;54.31;101889.13;5060160;28;20039;-71
2021/12/12 02:59:12;;;;;;;15.53;8.50;;;;;;;14.62;54.36;101892.53;5038018;28;20043;-70
2021/12/12 03:01:52;;;;;;;12.77;8.40;;;;;;;14.86;54.45;101888.78;5053433;28;20032;-71
2021/12/12 03:04:19;;;;;;;14.13;8.43;;;;;;;15.92;49.86;101875.09;5035101;28;20028;-71
2021/12/12 03:06:45;;;;;;;17.30;8.60;;;;;;;14.85;52.54;101873.91;5035252;28;20082;-71
2021/12/12 03:09:33;;;;;;;18.53;8.93;;;;;;;14.30;56.04;101880.56;5034825;28;20028;-70
2021/12/12 03:12:20;;;;;;;20.20;9.07;;;;;;;14.95;54.22;101877.28;5063423;28;20111;-71
2021/12/12 03:14:47;;;;;;;15.43;9.10;;;;;;;14.02;57.49;101879.91;5072654;28;20040;-71
2021/12/12 03:17:17;;;;;;;19.33;8.10;;;;;;;15.39;52.46;101870.59;5037382;28;20037;-71
2021/12/12 03:19:53;;;;;;;16.70;8.33;;;;;;;14.48;55.20;101876.00;5051980;28;20021;-71
2021/12/12 03:22:20;;;;;;;13.40;7.80;;;;;;;15.41;51.60;101867.91;5065666;28;20037;-71
2021/12/12 03:24:45;;;;;;;16.17;8.03;;;;;;;15.67;51.59;101872.81;5042926;28;20528;-71
2021/12/12 03:27:12;;;;;;;15.13;8.13;;;;;;;15.57;52.08;101880.00;5052822;28;20099;-71
2021/12/12 03:29:39;;;;;;;18.50;7.67;;;;;;;14.74;52.25;101868.75;5034773;28;20040;-71
2021/12/12 03:32:13;;;;;;;19.17;9.00;;;;;;;15.18;53.24;101870.84;5033835;28;20504;-71
2021/12/12 03:34:43;;;;;;;18.63;8.67;;;;;;;15.39;52.63;101860.03;5042781;28;20032;-71
2021/12/12 03:37:15;;;;;;;16.07;8.40;;;;;;;14.48;55.48;101876.00;5055487;28;20040;-71
2021/12/12 03:39:42;;;;;;;;;;;;;;;15.63;51.42;101865.84;5052449;28;20037;-71
2021/12/12 03:42:15;;;;;;;18.17;8.00;;;;;;;16.22;49.16;101864.97;5034101;28;20148;-71
2021/12/12 03:44:40;;;;;;;;;;;;;;;16.41;49.92;101862.88;5042879;28;20037;-71
2021/12/12 03:47:19;;;;;;;17.70;8.57;;;;;;;15.64;52.58;101864.97;5037019;28;19935;-71
2021/12/12 03:49:45;;;;;;;23.30;10.20;;;;;;;15.06;53.11;101869.28;5041356;28;20032;-71
2021/12/12 03:52:13;;;;;;;21.60;9.30;;;;;;;14.12;56.57;101868.41;5048033;28;20029;-71
2021/12/12 03:54:40;;;;;;;25.20;11.50;;;;;;;14.75;55.78;101867.88;5033725;28;20086;-72
2021/12/12 03:57:08;;;;;;;23.13;10.67;;;;;;;14.71;57.28;101876.69;5047783;28;20435;-71
2021/12/12 03:59:34;;;;;;;20.63;10.50;;;;;;;15.23;53.86;101874.31;5037777;28;20070;-71
2021/12/12 04:02:00;;;;;;;24.43;11.10;;;;;;;15.08;53.23;101892.06;5033216;28;20048;-70
2021/12/12 04:04:36;;;;;;;25.17;12.03;;;;;;;14.50;55.84;101876.88;5065802;28;20040;-70
2021/12/12 04:07:06;;;;;;;20.20;11.47;;;;;;;15.14;53.52;101887.59;5039324;28;20031;-70
2021/12/12 04:09:32;;;;;;;24.77;11.13;;;;;;;15.03;51.56;101878.06;5066835;28;20043;-72
2021/12/12 04:12:02;;;;;;;21.77;11.47;;;;;;;16.48;49.31;101875.03;5039131;28;20033;-70
2021/12/12 04:14:28;;;;;;;26.47;12.33;;;;;;;14.33;54.94;101890.16;5066543;28;20029;-70
2021/12/12 04:16:58;;;;;;;27.90;12.17;;;;;;;15.92;50.87;101875.09;5058069;28;20500;-70
2021/12/12 04:19:24;;;;;;;23.87;11.47;;;;;;;15.40;51.47;101888.13;5051502;28;20043;-70
2021/12/12 04:21:50;;;;;;;28.13;12.37;;;;;;;15.92;50.72;101886.53;5068070;28;20041;-71
2021/12/12 04:24:32;;;;;;;33.07;12.83;;;;;;;16.53;48.90;101888.19;5039784;28;20043;-71
2021/12/12 04:26:58;;;;;;;25.97;12.00;;;;;;;16.43;48.57;101888.34;5057772;28;20039;-72
2021/12/12 04:29:28;;;;;;;29.83;13.03;;;;;;;15.17;52.44;101890.19;5032906;28;20401;-72
2021/12/12 04:31:57;;;;;;;26.27;11.47;;;;;;;15.90;52.65;101887.47;5050651;28;20115;-70
2021/12/12 04:34:28;;;;;;;25.77;11.63;;;;;;;15.46;51.93;101881.91;5044563;28;20335;-70
2021/12/12 04:36:55;;;;;;;31.17;13.23;;;;;;;13.84;58.30;101879.16;5044726;28;20024;-70
2021/12/12 04:39:25;;;;;;;32.20;12.47;;;;;;;15.50;53.33;101882.75;5040868;28;20106;-70
2021/12/12 04:41:59;;;;;;;28.97;12.70;;;;;;;16.08;50.71;101876.59;5049749;28;20037;-70
2021/12/12 04:44:30;;;;;;;31.10;14.10;;;;;;;15.06;56.32;101890.34;5033551;28;20048;-70
2021/12/12 04:49:55;;;;;;;30.95;14.70;;;;;;;15.76;51.32;101885.00;5068118;28;20047;-72
2021/12/12 04:52:32;;;;;;;32.70;14.53;;;;;;;16.13;51.65;101884.47;5069964;28;20100;-70
2021/12/12 04:55:01;;;;;;;31.97;14.07;;;;;;;15.47;52.31;101881.03;5037796;28;20035;-72
2021/12/12 04:57:32;;;;;;;34.70;14.30;;;;;;;15.39;54.45;101886.38;5033698;28;20545;-72
2021/12/12 05:00:05;;;;;;;37.77;14.73;;;;;;;14.89;55.67;101887.88;5032586;28;20476;-72
2021/12/12 05:02:43;;;;;;;36.27;15.30;;;;;;;15.91;52.39;101884.78;5051038;28;20489;-72
2021/12/12 05:05:24;;;;;;;33.30;15.07;;;;;;;14.70;57.17;101890.72;5066804;28;20553;-72
2021/12/12 05:07:59;;;;;;;39.20;16.03;;;;;;;16.40;50.86;101883.13;5034374;28;20024;-70
2021/12/12 05:10:34;;;;;;;37.97;16.43;;;;;;;16.59;49.67;101882.78;5032584;28;20453;-72
2021/12/12 05:13:25;;;;;;;41.57;15.13;;;;;;;16.06;51.79;101891.59;5047167;28;20028;-70
2021/12/12 05:15:58;;;;;;;32.73;14.80;;;;;;;15.29;54.05;101900.59;5044747;28;20529;-72
2021/12/12 05:18:29;;;;;;;41.53;16.35;;;;;;;15.55;54.94;101892.31;5050453;28;20373;-72
2021/12/12 05:21:01;;;;;;;36.57;16.43;;;;;;;15.61;52.54;101899.28;5051846;28;20488;-73
2021/12/12 05:23:29;;;;;;;41.00;15.90;;;;;;;15.92;54.62;101896.19;5033657;28;20048;-72
2021/12/12 05:26:09;;;;;;;41.93;17.63;;;;;;;16.02;50.88;101903.09;5059162;28;20048;-72
2021/12/12 05:28:43;;;;;;;45.23;17.47;;;;;;;15.89;55.40;101896.25;5050781;28;20024;-70
2021/12/12 05:31:10;;;;;;;37.67;15.27;;;;;;;15.96;51.71;101908.44;5051544;28;20020;-70
2021/12/12 05:33:37;;;;;;;39.97;17.03;;;;;;;16.33;51.32;101912.25;5032190;28;20032;-70
2021/12/12 05:36:07;;;;;;;45.73;18.47;;;;;;;16.05;52.08;101913.59;5042037;28;20051;-70
2021/12/12 05:38:33;;;;;;;41.50;16.77;;;;;;;16.86;48.99;101913.06;5052609;28;20029;-70
2021/12/12 05:40:59;;;;;;;40.03;16.97;;;;;;;15.81;53.57;101909.53;5030912;28;20021;-72
2021/12/12 05:43:25;;;;;;;45.87;19.20;;;;;;;15.57;55.84;101916.03;5036571;28;20040;-70
2021/12/12 05:45:52;;;;;;;49.43;18.80;;;;;;;17.16;48.67;101909.88;5031155;28;20033;-70
2021/12/12 05:48:20;;;;;;;54.30;18.37;;;;;;;16.26;51.39;101908.84;5062155;28;20535;-70
2021/12/12 05:50:45;;;;;;;45.40;19.03;;;;;;;16.89;49.37;101912.16;5052018;28;20119;-70
2021/12/12 05:53:13;;;;;;;52.70;18.30;;;;;;;16.27;51.98;101914.09;5056493;28;20031;-70
2021/12/12 05:55:40;;;;;;;48.50;19.83;;;;;;;16.52;50.30;101926.00;5058982;28;20495;-70
2021/12/12 05:58:10;;;;;;;47.87;19.57;;;;;;;15.91;53.61;101923.50;5040990;28;20051;-72
2021/12/12 06:00:46;;;;;;;48.70;19.17;;;;;;;16.42;53.33;101920.03;5068461;28;20067;-72
2021/12/12 06:03:15;;;;;;;48.63;19.87;;;;;;;16.55;50.11;101920.66;5056740;28;20025;-72
2021/12/12 06:05:41;;;;;;;43.67;19.80;;;;;;;16.51;50.77;101929.53;5041955;28;20028;-72
2021/12/12 06:08:07;;;;;;;53.07;19.87;;;;;;;16.23;52.82;101932.66;5068387;28;20025;-72
2021/12/12 06:10:36;;;;;;;52.07;20.50;;;;;;;16.06;53.35;101925.88;5061100;28;20039;-72
2021/12/12 06:13:04;;;;;;;49.87;20.43;;;;;;;16.38;52.44;101932.41;5031245;28;20485;-72
2021/12/12 06:15:30;;;;;;;50.83;19.23;;;;;;;16.34;51.96;101937.75;5056474;28;20021;-70
2021/12/12 06:17:57;;;;;;;49.50;20.03;;;;;;;15.27;55.80;101933.97;5031224;28;20055;-70
2021/12/12 06:20:23;;;;;;;51.57;18.93;;;;;;;16.45;52.25;101938.44;5055377;28;20672;-70
2021/12/12 06:22:52;;;;;;;50.00;21.53;;;;;;;16.83;49.55;101933.34;5048731;28;20031;-70
2021/12/12 06:25:17;;;;;;;44.47;18.90;;;;;;;16.26;52.19;101944.00;5057328;28;20437;-70
2021/12/12 06:27:44;;;;;;;55.17;19.60;;;;;;;15.47;55.15;101948.63;5032439;28;20139;-70
2021/12/12 06:30:17;;;;;;;56.83;19.97;;;;;;;16.98;50.61;101938.41;5030651;28;20187;-70
2021/12/12 06:32:44;;;;;;;49.60;19.97;;;;;;;15.59;54.22;101935.31;5033453;28;20021;-70
2021/12/12 06:35:10;;;;;;;51.13;20.00;;;;;;;16.90;51.12;101937.69;5040866;28;20086;-70
2021/12/12 06:37:36;;;;;;;57.13;21.50;;;;;;;16.61;51.29;101934.63;5049533;28;20435;-70
2021/12/12 06:40:05;;;;;;;49.43;19.13;;;;;;;16.47;52.95;101935.78;5068275;28;20079;-70
2021/12/12 06:42:32;;;;;;;61.90;20.73;;;;;;;15.61;54.84;101936.16;5068951;28;20044;-70
2021/12/12 06:44:58;;;;;;;45.43;18.40;;;;;;;15.43;56.36;101946.03;5045496;28;20032;-70
2021/12/12 06:47:23;;;;;;;56.50;19.63;;;;;;;17.87;48.20;101935.63;5051318;28;20028;-70
2021/12/12 06:49:49;;;;;;;51.70;19.20;;;;;;;17.17;49.27;101948.59;5047758;28;20431;-70
2021/12/12 06:52:17;;;;;;;52.87;18.63;;;;;;;16.15;54.03;101945.09;5069271;28;20480;-73
2021/12/12 06:54:43;;;;;;;49.77;19.87;;;;;;;16.93;51.48;101940.25;5042129;28;20511;-72
2021/12/12 06:57:14;;;;;;;55.40;20.53;;;;;;;16.30;55.02;101944.84;5056339;28;20472;-72
2021/12/12 06:59:42;;;;;;;52.70;19.90;;;;;;;17.49;50.84;101952.34;5046698;28;20063;-72
2021/12/12 07:02:09;;;;;;;61.83;19.37;;;;;;;17.30;50.66;101944.81;5047020;28;20029;-72
2021/12/12 07:04:37;;;;;;;64.37;20.30;;;;;;;17.66;48.57;101936.13;5040440;28;20087;-70
2021/12/12 07:07:05;;;;;;;47.60;19.13;;;;;;;17.27;49.46;101964.25;5053760;28;20017;-69
2021/12/12 07:09:33;;;;;;;61.40;19.93;;;;;;;16.82;52.23;101947.50;5053961;28;20039;-70
2021/12/12 07:12:04;;;;;;;71.13;20.77;;;;;;;16.92;51.65;101954.34;5069747;28;20391;-72
2021/12/12 07:14:31;;;;;;;59.17;20.93;;;;;;;18.17;47.54;101945.56;5050339;28;20488;-71
2021/12/12 07:16:57;;;;;;;58.17;20.37;;;;;;;18.18;47.59;101958.75;5040800;28;20492;-72
2021/12/12 07:19:23;;;;;;;47.07;18.90;;;;;;;17.89;48.10;101959.41;5033727;28;20036;-72
2021/12/12 07:21:50;;;;;;;54.13;18.67;;;;;;;16.79;51.77;101959.81;5040262;28;20547;-72
2021/12/12 07:24:18;;;;;;;48.53;18.27;;;;;;;16.29;54.47;101958.91;5042975;28;20044;-72
2021/12/12 07:26:43;;;;;;;57.53;18.80;;;;;;;16.20;56.89;101969.63;5052796;28;20494;-72
2021/12/12 07:29:10;;;;;;;45.93;18.50;;;;;;;16.25;54.22;101978.31;5054111;28;20120;-72
2021/12/12 07:31:37;;;;;;;53.93;18.27;;;;;;;17.42;51.21;101968.34;5059195;28;20071;-72
2021/12/12 07:34:07;;;;;;;50.63;19.00;;;;;;;16.92;51.92;101972.84;5046084;28;20028;-73
2021/12/12 07:36:37;;;;;;;65.53;19.83;;;;;;;17.29;51.75;101969.50;5063694;28;20024;-72
2021/12/12 07:39:12;;;;;;;59.60;18.87;;;;;;;17.94;49.46;101968.13;5037845;28;20487;-72
2021/12/12 07:41:39;;;;;;;59.57;20.00;;;;;;;17.25;51.60;101973.09;5054210;28;20075;-72
2021/12/12 07:44:08;;;;;;;59.27;18.87;;;;;;;17.51;50.86;101982.28;5061120;28;20040;-72
2021/12/12 07:46:36;;;;;;;59.47;18.93;;;;;;;17.49;50.34;101986.69;5050701;28;20025;-72
2021/12/12 07:49:05;;;;;;;65.00;20.87;;;;;;;17.29;50.71;101985.34;5037233;28;20031;-72
2021/12/12 07:51:33;;;;;;;59.40;20.10;;;;;;;17.61;49.60;101986.44;5052192;28;20043;-72
2021/12/12 07:54:01;;;;;;;58.07;18.60;;;;;;;16.89;51.37;101986.97;5035669;28;20021;-72
2021/12/12 07:56:29;;;;;;;58.23;18.07;;;;;;;17.74;50.09;101982.63;5051805;28;20084;-72
2021/12/12 07:58:56;;;;;;;60.57;19.37;;;;;;;17.45;52.51;101992.06;5034631;28;20052;-73
2021/12/12 08:01:23;;;;;;;56.30;18.60;;;;;;;17.99;48.15;102002.44;5033273;28;20581;-72
2021/12/12 08:03:52;;;;;;;54.43;19.03;;;;;;;17.24;50.39;101990.72;5040296;28;20392;-72
2021/12/12 08:06:17;;;;;;;52.70;18.17;;;;;;;16.72;52.97;101997.81;5051899;28;20111;-72
2021/12/12 08:08:44;;;;;;;61.60;19.80;;;;;;;17.66;50.50;102007.53;5065341;28;20119;-72
2021/12/12 08:11:14;;;;;;;52.90;18.50;;;;;;;17.27;51.12;102003.00;5042417;28;20050;-73
2021/12/12 08:13:39;;;;;;;60.00;18.37;;;;;;;16.81;53.43;102009.09;5045987;28;20085;-72
2021/12/12 08:16:08;;;;;;;56.80;18.43;;;;;;;15.54;57.03;102019.69;5032411;28;20041;-73
2021/12/12 08:18:35;;;;;;;52.00;18.73;;;;;;;17.06;52.65;102021.00;5051272;28;20134;-72
2021/12/12 08:21:01;;;;;;;65.07;18.87;;;;;;;17.55;52.00;102020.94;5032567;28;20044;-73
2021/12/12 08:23:27;;;;;;;54.57;19.03;;;;;;;17.76;52.00;102016.97;5051537;28;20016;-72
2021/12/12 08:25:54;;;;;;;58.93;20.20;;;;;;;17.54;52.74;102029.78;5051370;28;20112;-72
2021/12/12 08:28:21;;;;;;;58.10;18.87;;;;;;;17.76;51.26;102028.44;5050483;28;20828;-72
2021/12/12 08:30:48;;;;;;;61.73;20.17;;;;;;;18.61;48.24;102028.31;5065972;28;20063;-73
2021/12/12 08:33:14;;;;;;;62.17;19.00;;;;;;;19.05;46.81;102031.63;5052075;28;20025;-72
2021/12/12 08:35:41;;;;;;;53.90;18.80;;;;;;;17.86;49.65;102041.44;5039544;28;20027;-72
2021/12/12 08:38:08;;;;;;;49.07;18.80;;;;;;;17.51;52.63;102043.06;5032881;28;20059;-72
2021/12/12 08:40:37;;;;;;;52.73;18.67;;;;;;;16.11;56.02;102045.38;5042450;28;20056;-73
2021/12/12 08:43:09;;;;;;;58.80;19.00;;;;;;;17.78;50.86;102036.34;5061873;28;20123;-72
2021/12/12 08:45:37;;;;;;;49.23;17.70;;;;;;;18.23;50.56;102035.38;5050082;28;20043;-73
2021/12/12 08:48:03;;;;;;;49.27;18.67;;;;;;;17.02;52.77;102037.81;5052620;28;20054;-73
2021/12/12 08:50:33;;;;;;;42.77;15.67;;;;;;;16.82;56.31;102053.97;5064223;28;20028;-72
2021/12/12 08:53:00;;;;;;;48.30;17.97;;;;;;;17.34;53.25;102038.09;5040113;28;20044;-72
2021/12/12 08:55:34;;;;;;;55.37;19.20;;;;;;;17.70;51.46;102049.72;5047744;28;20438;-72
2021/12/12 08:58:14;;;;;;;48.97;16.87;;;;;;;17.37;53.95;102054.78;5066375;28;20112;-73
2021/12/12 09:00:43;;;;;;;44.57;16.00;;;;;;;18.03;51.77;102047.28;5045727;28;20028;-72
2021/12/12 09:03:09;;;;;;;39.93;15.20;;;;;;;17.61;52.12;102055.19;5069311;28;20069;-73
2021/12/12 09:05:37;;;;;;;47.53;16.63;;;;;;;18.29;49.56;102049.34;5049282;28;20028;-71
2021/12/12 09:08:11;;;;;;;51.27;17.53;;;;;;;18.06;50.88;102056.94;5063056;28;20465;-72
2021/12/12 09:11:07;;;;;;;35.37;15.33;;;;;;;18.11;50.77;102061.22;5040650;28;20404;-72
2021/12/12 09:13:49;;;;;;;33.30;15.13;;;;;;;17.69;53.12;102073.53;5070560;28;20507;-72
2021/12/12 09:16:49;;;;;;;35.23;14.10;;;;;;;17.68;52.71;102071.78;5032274;28;20397;-72
2021/12/12 09:19:29;;;;;;;28.57;12.27;;;;;;;17.35;53.55;102072.44;5035749;28;20484;-72
2021/12/12 09:22:11;;;;;;;33.87;12.90;;;;;;;17.71;52.75;102072.63;5052029;28;20548;-72
2021/12/12 09:25:11;;;;;;;31.80;12.80;;;;;;;18.92;48.98;102064.66;5049022;28;20063;-72
2021/12/12 09:27:48;;;;;;;33.17;13.73;;;;;;;19.55;46.81;102075.34;5049657;28;20488;-72
2021/12/12 09:30:23;;;;;;;32.10;12.67;;;;;;;18.81;49.43;102073.69;5051457;28;20104;-72
2021/12/12 09:32:54;;;;;;;37.50;13.67;;;;;;;18.00;50.89;102089.69;5031266;28;20480;-73
2021/12/12 09:35:31;;;;;;;29.77;11.57;;;;;;;17.99;52.35;102087.94;5043392;28;20029;-72
2021/12/12 09:38:03;;;;;;;32.93;12.23;;;;;;;18.09;51.52;102093.91;5050455;28;20032;-72
2021/12/12 09:40:57;;;;;;;31.53;12.03;;;;;;;19.79;46.89;102090.53;5057501;28;20032;-73
2021/12/12 09:43:45;;;;;;;28.27;11.80;;;;;;;19.04;47.00;102101.44;5035230;28;20136;-72
2021/12/12 09:46:19;;;;;;;28.30;11.00;;;;;;;18.82;48.67;102101.94;5067846;28;20036;-73
2021/12/12 09:52:09;;;;;;;24.95;10.07;;;;;;;17.85;53.11;102103.19;5049609;28;20044;-72
2021/12/12 09:54:47;;;;;;;30.70;11.13;;;;;;;17.70;51.60;102096.44;5051103;28;20094;-73
2021/12/12 09:57:27;;;;;;;31.17;11.87;;;;;;;17.70;51.14;102102.59;5045360;28;20039;-72
2021/12/12 10:00:23;;;;;;;28.67;11.77;;;;;;;18.94;47.96;102099.91;5046141;28;20369;-72
2021/12/12 10:03:15;;;;;;;31.17;10.70;;;;;;;18.69;49.60;102100.47;5071092;28;20035;-72
2021/12/12 10:05:43;;;;;;;25.65;10.88;;;;;;;18.75;49.59;102105.66;5050630;28;20033;-72
2021/12/12 10:08:30;;;;;;;22.50;10.33;;;;;;;19.27;47.56;102099.94;5065775;28;20025;-72
2021/12/12 10:11:07;;;;;;;21.50;10.03;;;;;;;19.10;48.32;102101.25;5031294;28;20041;-72
2021/12/12 10:13:41;;;;;;;26.80;10.17;;;;;;;19.44;48.65;102105.69;5064494;28;20134;-70
2021/12/12 10:16:46;;;;;;;20.53;9.53;;;;;;;19.14;48.06;102094.13;5046495;28;20037;-71
2021/12/12 10:19:23;;;;;;;21.50;10.23;;;;;;;18.88;48.67;102094.78;5041645;28;20042;-71
2021/12/12 10:22:13;;;;;;;21.47;9.97;;;;;;;17.88;53.92;102097.84;5044064;28;20044;-70
2021/12/12 10:24:58;;;;;;;20.73;9.70;;;;;;;18.97;49.71;102099.81;5053630;28;20041;-71
2021/12/12 10:27:35;;;;;;;21.07;9.20;;;;;;;18.97;49.46;102105.13;5037320;28;20025;-71
2021/12/12 10:30:06;;;;;;;22.77;9.83;;;;;;;18.81;49.01;102102.84;5042147;28;20047;-70
2021/12/12 10:32:54;;;;;;;22.03;9.63;;;;;;;18.55;49.91;102108.75;5051670;28;20186;-71
2021/12/12 10:35:38;;;;;;;23.03;10.70;;;;;;;19.53;48.89;102109.00;5049583;28;20040;-71
2021/12/12 10:38:31;;;;;;;21.80;9.70;;;;;;;20.05;46.41;102107.53;5038748;28;20499;-71
2021/12/12 10:41:03;;;;;;;18.15;8.73;;;;;;;19.99;46.78;102094.47;5062561;28;20035;-71
2021/12/12 10:44:03;;;;;;;16.42;8.40;;;;;;;19.98;46.51;102105.97;5071791;28;20035;-71
2021/12/12 10:46:49;;;;;;;17.93;9.03;;;;;;;20.47;45.91;102108.91;5043631;28;20043;-71
2021/12/12 10:49:29;;;;;;;29.40;12.00;;;;;;;19.75;47.82;102107.47;5071747;28;20056;-71
2021/12/12 10:52:03;;;;;;;22.77;10.47;;;;;;;18.25;51.66;102111.19;5035508;28;20422;-70
2021/12/12 10:54:49;;;;;;;21.57;9.63;;;;;;;18.98;52.95;102112.16;5043214;28;20032;-71
2021/12/12 10:57:20;;;;;;;22.47;10.73;;;;;;;19.93;48.79;102108.75;5043808;28;20029;-71
2021/12/12 10:59:56;;;;;;;26.73;10.70;;;;;;;20.19;48.31;102103.59;5042838;28;20032;-71
2021/12/12 11:02:30;;;;;;;22.63;9.80;;;;;;;19.81;46.99;102104.69;5054968;28;20388;-71
2021/12/12 11:05:10;;;;;;;20.23;8.77;;;;;;;19.46;48.41;102098.53;5046370;28;20020;-71
2021/12/12 11:07:46;;;;;;;20.93;8.93;;;;;;;19.95;49.03;102106.06;5043197;28;20449;-71
2021/12/12 11:10:24;;;;;;;17.93;8.30;;;;;;;19.97;48.58;102104.22;5051456;28;20028;-71
2021/12/12 11:12:56;;;;;;;19.23;8.67;;;;;;;19.03;50.33;102104.97;5051909;28;20491;-71
2021/12/12 11:15:49;;;;;;;18.98;8.05;;;;;;;18.77;51.80;102114.41;5034856;28;20061;-72
2021/12/12 11:18:16;;;;;;;;;;;;;;;20.64;46.45;102105.72;5060709;28;20436;-71
2021/12/12 11:20:48;;;;;;;15.53;7.70;;;;;;;19.29;48.85;102103.44;5050630;28;19920;-71
2021/12/12 11:23:13;;;;;;;18.17;9.23;;;;;;;19.91;49.10;102105.28;5034882;28;20039;-71
2021/12/12 11:25:52;;;;;;;14.57;8.03;;;;;;;19.60;48.48;102118.50;5034049;28;20115;-72
2021/12/12 11:28:23;;;;;;;16.50;7.40;;;;;;;20.11;49.18;102102.06;5042670;28;20029;-71
2021/12/12 11:31:03;;;;;;;12.90;6.90;;;;;;;19.42;50.27;102107.47;5051147;28;20480;-71
2021/12/12 11:33:33;;;;;;;14.40;7.37;;;;;;;20.39;48.13;102111.81;5035309;28;20090;-70
2021/12/12 11:36:00;;;;;;;11.30;5.90;;;;;;;20.05;48.72;102112.84;5062786;28;20059;-71
2021/12/12 11:38:50;;;;;;;13.00;7.17;;;;;;;20.99;47.07;102109.03;5053538;28;20032;-71
2021/12/12 11:41:42;;;;;;;14.77;6.63;;;;;;;20.53;46.85;102114.03;5038734;28;20036;-71
2021/12/12 11:44:27;;;;;;;12.00;6.47;;;;;;;20.19;47.66;102119.53;5033595;28;20044;-71
2021/12/12 11:47:40;;;;;;;11.60;6.13;;;;;;;20.31;47.89;102124.47;5050778;28;20040;-71
2021/12/12 11:50:14;;;;;;;8.98;5.35;;;;;;;19.62;50.36;102127.31;4978724;28;20057;-71
2021/12/12 11:52:50;;;;;;;12.93;6.23;;;;;;;19.75;50.77;102126.03;5064854;28;20028;-71
2021/12/12 11:55:21;;;;;;;6.87;4.70;;;;;;;19.96;51.03;102123.72;5070813;28;20077;-71